Nabq, Egypt
Current Conditions -  °F | °C
As of 10:00 PM on Friday 19 Dec 2014 (Local Time) from HESH Reporting Station
Clear Clear  
Wind Chill: 20°   Ceiling: Unl
Heat Index: 20°   Visibility: 6mi
Dew Point: 13°   Wind: 5mph
Humidity: 64%   Direction: 300°WNW
Pressure: 30"   Gusts: NA
Location:  28.07°N, 34.42°E
Report Text: HESH 192000Z 30004KT CAVOK 20/13 Q1016 NOSIG
Loading
Personal Weather Stations






























Interactive Weather Map New forecast layout! Learn more

10-Day Weather Forecast

Advertisements
Track Severe Weather on mobile